sensor_id;sensor_type;location;lat;lon;timestamp;temperature;humidity
20081;DHT22;10200;49.232;9.222;2023-11-21T00:02:20;10.30;99.90
20081;DHT22;10200;49.232;9.222;2023-11-21T00:04:46;10.30;99.90
20081;DHT22;10200;49.232;9.222;2023-11-21T00:07:12;10.30;99.90
20081;DHT22;10200;49.232;9.222;2023-11-21T00:09:37;10.30;99.90
20081;DHT22;10200;49.232;9.222;2023-11-21T00:12:03;10.30;99.90
20081;DHT22;10200;49.232;9.222;2023-11-21T00:14:29;10.30;99.90
20081;DHT22;10200;49.232;9.222;2023-11-21T00:16:55;10.30;99.90
20081;DHT22;10200;49.232;9.222;2023-11-21T00:19:21;10.30;99.90
20081;DHT22;10200;49.232;9.222;2023-11-21T00:21:46;10.30;99.90
20081;DHT22;10200;49.232;9.222;2023-11-21T00:24:12;10.30;99.90
20081;DHT22;10200;49.232;9.222;2023-11-21T00:26:39;10.20;99.90
20081;DHT22;10200;49.232;9.222;2023-11-21T00:29:05;10.30;99.90
20081;DHT22;10200;49.232;9.222;2023-11-21T00:31:34;10.30;99.90
20081;DHT22;10200;49.232;9.222;2023-11-21T00:34:02;10.30;99.90
20081;DHT22;10200;49.232;9.222;2023-11-21T00:36:29;10.30;99.90
20081;DHT22;10200;49.232;9.222;2023-11-21T00:38:54;10.20;99.90
20081;DHT22;10200;49.232;9.222;2023-11-21T00:41:21;10.20;99.90
20081;DHT22;10200;49.232;9.222;2023-11-21T00:43:46;10.20;99.90
20081;DHT22;10200;49.232;9.222;2023-11-21T00:46:12;10.20;99.90
20081;DHT22;10200;49.232;9.222;2023-11-21T00:48:38;10.10;99.90
20081;DHT22;10200;49.232;9.222;2023-11-21T00:51:03;10.10;99.90
20081;DHT22;10200;49.232;9.222;2023-11-21T00:53:29;10.10;99.90
20081;DHT22;10200;49.232;9.222;2023-11-21T00:55:55;10.00;99.90
20081;DHT22;10200;49.232;9.222;2023-11-21T00:58:25;10.00;99.90
20081;DHT22;10200;49.232;9.222;2023-11-21T01:00:51;10.00;99.90
20081;DHT22;10200;49.232;9.222;2023-11-21T01:03:16;10.00;99.90
20081;DHT22;10200;49.232;9.222;2023-11-21T01:05:42;10.10;99.90
20081;DHT22;10200;49.232;9.222;2023-11-21T01:08:08;10.10;99.90
20081;DHT22;10200;49.232;9.222;2023-11-21T01:10:33;10.10;99.90
20081;DHT22;10200;49.232;9.222;2023-11-21T01:12:59;10.10;99.90
20081;DHT22;10200;49.232;9.222;2023-11-21T01:15:25;10.10;99.90
20081;DHT22;10200;49.232;9.222;2023-11-21T01:17:51;10.10;99.90
20081;DHT22;10200;49.232;9.222;2023-11-21T01:20:17;10.10;99.90
20081;DHT22;10200;49.232;9.222;2023-11-21T01:22:43;10.10;99.90
20081;DHT22;10200;49.232;9.222;2023-11-21T01:25:09;10.10;99.90
20081;DHT22;10200;49.232;9.222;2023-11-21T01:27:36;10.10;99.90
20081;DHT22;10200;49.232;9.222;2023-11-21T01:30:02;10.10;99.90
20081;DHT22;10200;49.232;9.222;2023-11-21T01:32:28;10.10;99.90
20081;DHT22;10200;49.232;9.222;2023-11-21T01:34:54;10.10;99.90
20081;DHT22;10200;49.232;9.222;2023-11-21T01:37:20;10.10;99.90
20081;DHT22;10200;49.232;9.222;2023-11-21T01:39:47;10.10;99.90
20081;DHT22;10200;49.232;9.222;2023-11-21T01:42:13;10.10;99.90
20081;DHT22;10200;49.232;9.222;2023-11-21T01:44:39;10.10;99.90
20081;DHT22;10200;49.232;9.222;2023-11-21T01:47:05;10.10;99.90
20081;DHT22;10200;49.232;9.222;2023-11-21T01:49:35;10.20;99.90
20081;DHT22;10200;49.232;9.222;2023-11-21T01:52:01;10.10;99.90
20081;DHT22;10200;49.232;9.222;2023-11-21T01:54:27;10.10;99.90
20081;DHT22;10200;49.232;9.222;2023-11-21T01:56:57;10.10;99.90
20081;DHT22;10200;49.232;9.222;2023-11-21T01:59:46;10.10;99.90
20081;DHT22;10200;49.232;9.222;2023-11-21T02:02:13;10.10;99.90
20081;DHT22;10200;49.232;9.222;2023-11-21T02:04:39;10.20;99.90
20081;DHT22;10200;49.232;9.222;2023-11-21T02:07:04;10.20;99.90
20081;DHT22;10200;49.232;9.222;2023-11-21T02:09:33;10.10;99.90
20081;DHT22;10200;49.232;9.222;2023-11-21T02:12:00;10.10;99.90
20081;DHT22;10200;49.232;9.222;2023-11-21T02:14:26;10.20;99.90
20081;DHT22;10200;49.232;9.222;2023-11-21T02:16:53;10.20;99.90
20081;DHT22;10200;49.232;9.222;2023-11-21T02:19:21;10.10;99.90
20081;DHT22;10200;49.232;9.222;2023-11-21T02:21:52;10.10;99.90
20081;DHT22;10200;49.232;9.222;2023-11-21T02:24:19;10.20;99.90
20081;DHT22;10200;49.232;9.222;2023-11-21T02:26:45;10.10;99.90
20081;DHT22;10200;49.232;9.222;2023-11-21T02:29:11;10.10;99.90
20081;DHT22;10200;49.232;9.222;2023-11-21T02:31:38;10.10;99.90
20081;DHT22;10200;49.232;9.222;2023-11-21T02:34:16;10.10;99.90
20081;DHT22;10200;49.232;9.222;2023-11-21T02:36:43;10.10;99.90
20081;DHT22;10200;49.232;9.222;2023-11-21T02:39:09;10.10;99.90
20081;DHT22;10200;49.232;9.222;2023-11-21T02:41:36;10.10;99.90
20081;DHT22;10200;49.232;9.222;2023-11-21T02:44:02;10.20;99.90
20081;DHT22;10200;49.232;9.222;2023-11-21T02:46:28;10.10;99.90
20081;DHT22;10200;49.232;9.222;2023-11-21T02:48:53;10.10;99.90
20081;DHT22;10200;49.232;9.222;2023-11-21T02:51:20;10.10;99.90
20081;DHT22;10200;49.232;9.222;2023-11-21T02:53:45;10.20;99.90
20081;DHT22;10200;49.232;9.222;2023-11-21T02:56:12;10.10;99.90
20081;DHT22;10200;49.232;9.222;2023-11-21T02:58:41;10.10;99.90
20081;DHT22;10200;49.232;9.222;2023-11-21T03:01:06;10.10;99.90
20081;DHT22;10200;49.232;9.222;2023-11-21T03:03:33;10.10;99.90
20081;DHT22;10200;49.232;9.222;2023-11-21T03:05:59;10.10;99.90
20081;DHT22;10200;49.232;9.222;2023-11-21T03:08:24;10.10;99.90
20081;DHT22;10200;49.232;9.222;2023-11-21T03:10:50;10.10;99.90
20081;DHT22;10200;49.232;9.222;2023-11-21T03:13:16;10.10;99.90
20081;DHT22;10200;49.232;9.222;2023-11-21T03:15:41;10.10;99.90
20081;DHT22;10200;49.232;9.222;2023-11-21T03:18:08;10.10;99.90
20081;DHT22;10200;49.232;9.222;2023-11-21T03:20:33;10.10;99.90
20081;DHT22;10200;49.232;9.222;2023-11-21T03:23:00;10.10;99.90
20081;DHT22;10200;49.232;9.222;2023-11-21T03:25:25;10.10;99.90
20081;DHT22;10200;49.232;9.222;2023-11-21T03:27:51;10.10;99.90
20081;DHT22;10200;49.232;9.222;2023-11-21T03:30:17;10.10;99.90
20081;DHT22;10200;49.232;9.222;2023-11-21T03:32:42;10.10;99.90
20081;DHT22;10200;49.232;9.222;2023-11-21T03:35:08;10.10;99.90
20081;DHT22;10200;49.232;9.222;2023-11-21T03:37:34;10.10;99.90
20081;DHT22;10200;49.232;9.222;2023-11-21T03:39:59;10.10;99.90
20081;DHT22;10200;49.232;9.222;2023-11-21T03:42:25;10.10;99.90
20081;DHT22;10200;49.232;9.222;2023-11-21T03:44:52;10.10;99.90
20081;DHT22;10200;49.232;9.222;2023-11-21T03:47:17;10.10;99.90
20081;DHT22;10200;49.232;9.222;2023-11-21T03:49:43;10.10;99.90
20081;DHT22;10200;49.232;9.222;2023-11-21T03:52:09;10.20;99.90
20081;DHT22;10200;49.232;9.222;2023-11-21T03:54:35;10.10;99.90
20081;DHT22;10200;49.232;9.222;2023-11-21T03:57:01;10.20;99.90
20081;DHT22;10200;49.232;9.222;2023-11-21T03:59:27;10.20;99.90
20081;DHT22;10200;49.232;9.222;2023-11-21T04:01:54;10.20;99.90
20081;DHT22;10200;49.232;9.222;2023-11-21T04:04:20;10.20;99.90
20081;DHT22;10200;49.232;9.222;2023-11-21T04:06:45;10.20;99.90
20081;DHT22;10200;49.232;9.222;2023-11-21T04:09:11;10.20;99.90
20081;DHT22;10200;49.232;9.222;2023-11-21T04:11:37;10.20;99.90
20081;DHT22;10200;49.232;9.222;2023-11-21T04:14:03;10.20;99.90
20081;DHT22;10200;49.232;9.222;2023-11-21T04:16:29;10.20;99.90
20081;DHT22;10200;49.232;9.222;2023-11-21T04:18:54;10.20;99.90
20081;DHT22;10200;49.232;9.222;2023-11-21T04:21:20;10.20;99.90
20081;DHT22;10200;49.232;9.222;2023-11-21T04:23:45;10.20;99.90
20081;DHT22;10200;49.232;9.222;2023-11-21T04:26:12;10.20;99.90
20081;DHT22;10200;49.232;9.222;2023-11-21T04:28:38;10.20;99.90
20081;DHT22;10200;49.232;9.222;2023-11-21T04:31:04;10.20;99.90
20081;DHT22;10200;49.232;9.222;2023-11-21T04:33:30;10.20;99.90
20081;DHT22;10200;49.232;9.222;2023-11-21T04:35:56;10.20;99.90
20081;DHT22;10200;49.232;9.222;2023-11-21T04:38:22;10.20;99.90
20081;DHT22;10200;49.232;9.222;2023-11-21T04:40:48;10.20;99.90
20081;DHT22;10200;49.232;9.222;2023-11-21T04:43:13;10.20;99.90
20081;DHT22;10200;49.232;9.222;2023-11-21T04:45:39;10.20;99.90
20081;DHT22;10200;49.232;9.222;2023-11-21T04:48:06;10.20;99.90
20081;DHT22;10200;49.232;9.222;2023-11-21T04:50:32;10.20;99.90
20081;DHT22;10200;49.232;9.222;2023-11-21T04:52:57;10.20;99.90
20081;DHT22;10200;49.232;9.222;2023-11-21T04:55:23;10.20;99.90
20081;DHT22;10200;49.232;9.222;2023-11-21T04:57:48;10.10;99.90
20081;DHT22;10200;49.232;9.222;2023-11-21T05:00:14;10.20;99.90
20081;DHT22;10200;49.232;9.222;2023-11-21T05:02:41;10.20;99.90
20081;DHT22;10200;49.232;9.222;2023-11-21T05:05:07;10.20;99.90
20081;DHT22;10200;49.232;9.222;2023-11-21T05:07:33;10.20;99.90
20081;DHT22;10200;49.232;9.222;2023-11-21T05:10:00;10.20;99.90
20081;DHT22;10200;49.232;9.222;2023-11-21T05:12:31;10.20;99.90
20081;DHT22;10200;49.232;9.222;2023-11-21T05:15:07;10.20;99.90
20081;DHT22;10200;49.232;9.222;2023-11-21T05:17:36;10.20;99.90
20081;DHT22;10200;49.232;9.222;2023-11-21T05:20:03;10.20;99.90
20081;DHT22;10200;49.232;9.222;2023-11-21T05:22:29;10.10;99.90
20081;DHT22;10200;49.232;9.222;2023-11-21T05:24:55;10.10;99.90
20081;DHT22;10200;49.232;9.222;2023-11-21T05:27:21;10.20;99.90
20081;DHT22;10200;49.232;9.222;2023-11-21T05:29:46;10.20;99.90
20081;DHT22;10200;49.232;9.222;2023-11-21T05:32:12;10.20;99.90
20081;DHT22;10200;49.232;9.222;2023-11-21T05:34:37;10.20;99.90
20081;DHT22;10200;49.232;9.222;2023-11-21T05:37:03;10.20;99.90
20081;DHT22;10200;49.232;9.222;2023-11-21T05:39:31;10.20;99.90
20081;DHT22;10200;49.232;9.222;2023-11-21T05:41:57;10.20;99.90
20081;DHT22;10200;49.232;9.222;2023-11-21T05:44:23;10.10;99.90
20081;DHT22;10200;49.232;9.222;2023-11-21T05:46:49;10.20;99.90
20081;DHT22;10200;49.232;9.222;2023-11-21T05:49:15;10.20;99.90
20081;DHT22;10200;49.232;9.222;2023-11-21T05:51:42;10.10;99.90
20081;DHT22;10200;49.232;9.222;2023-11-21T05:54:07;10.20;99.90
20081;DHT22;10200;49.232;9.222;2023-11-21T05:56:33;10.10;99.90
20081;DHT22;10200;49.232;9.222;2023-11-21T05:58:59;10.10;99.90
20081;DHT22;10200;49.232;9.222;2023-11-21T06:01:25;10.10;99.90
20081;DHT22;10200;49.232;9.222;2023-11-21T06:03:53;10.10;99.90
20081;DHT22;10200;49.232;9.222;2023-11-21T06:06:20;10.10;99.90
20081;DHT22;10200;49.232;9.222;2023-11-21T06:08:50;10.10;99.90
20081;DHT22;10200;49.232;9.222;2023-11-21T06:11:16;10.20;99.90
20081;DHT22;10200;49.232;9.222;2023-11-21T06:13:44;10.20;99.90
20081;DHT22;10200;49.232;9.222;2023-11-21T06:16:09;10.20;99.90
20081;DHT22;10200;49.232;9.222;2023-11-21T06:18:35;10.20;99.90
20081;DHT22;10200;49.232;9.222;2023-11-21T06:21:01;10.20;99.90
20081;DHT22;10200;49.232;9.222;2023-11-21T06:23:26;10.20;99.90
20081;DHT22;10200;49.232;9.222;2023-11-21T06:25:52;10.20;99.90
20081;DHT22;10200;49.232;9.222;2023-11-21T06:28:18;10.20;99.90
20081;DHT22;10200;49.232;9.222;2023-11-21T06:30:44;10.20;99.90
20081;DHT22;10200;49.232;9.222;2023-11-21T06:33:14;10.20;99.90
20081;DHT22;10200;49.232;9.222;2023-11-21T06:35:40;10.20;99.90
20081;DHT22;10200;49.232;9.222;2023-11-21T06:38:05;10.20;99.90
20081;DHT22;10200;49.232;9.222;2023-11-21T06:40:31;10.20;99.90
20081;DHT22;10200;49.232;9.222;2023-11-21T06:42:59;10.30;99.90
20081;DHT22;10200;49.232;9.222;2023-11-21T06:45:24;10.20;99.90
20081;DHT22;10200;49.232;9.222;2023-11-21T06:47:50;10.20;99.90
20081;DHT22;10200;49.232;9.222;2023-11-21T06:50:15;10.30;99.90
20081;DHT22;10200;49.232;9.222;2023-11-21T06:52:41;10.30;99.90
20081;DHT22;10200;49.232;9.222;2023-11-21T06:55:07;10.30;99.90
20081;DHT22;10200;49.232;9.222;2023-11-21T06:57:36;10.30;99.90
20081;DHT22;10200;49.232;9.222;2023-11-21T07:00:02;10.30;99.90
20081;DHT22;10200;49.232;9.222;2023-11-21T07:02:28;10.30;99.90
20081;DHT22;10200;49.232;9.222;2023-11-21T07:04:54;10.40;99.90
20081;DHT22;10200;49.232;9.222;2023-11-21T07:07:20;10.30;99.90
20081;DHT22;10200;49.232;9.222;2023-11-21T07:09:45;10.30;99.90
20081;DHT22;10200;49.232;9.222;2023-11-21T07:12:11;10.30;99.90
20081;DHT22;10200;49.232;9.222;2023-11-21T07:14:37;10.30;99.90
20081;DHT22;10200;49.232;9.222;2023-11-21T07:17:04;10.30;99.90
20081;DHT22;10200;49.232;9.222;2023-11-21T07:19:30;10.30;99.90
20081;DHT22;10200;49.232;9.222;2023-11-21T07:21:56;10.30;99.90
20081;DHT22;10200;49.232;9.222;2023-11-21T07:24:21;10.30;99.90
20081;DHT22;10200;49.232;9.222;2023-11-21T07:26:48;10.30;99.90
20081;DHT22;10200;49.232;9.222;2023-11-21T07:29:14;10.30;99.90
20081;DHT22;10200;49.232;9.222;2023-11-21T07:31:39;10.30;99.90
20081;DHT22;10200;49.232;9.222;2023-11-21T07:34:06;10.30;99.90
20081;DHT22;10200;49.232;9.222;2023-11-21T07:36:33;10.40;99.90
20081;DHT22;10200;49.232;9.222;2023-11-21T07:38:59;10.40;99.90
20081;DHT22;10200;49.232;9.222;2023-11-21T07:41:24;10.40;99.90
20081;DHT22;10200;49.232;9.222;2023-11-21T07:43:50;10.40;99.90
20081;DHT22;10200;49.232;9.222;2023-11-21T07:46:16;10.40;99.90
20081;DHT22;10200;49.232;9.222;2023-11-21T07:48:42;10.50;99.90
20081;DHT22;10200;49.232;9.222;2023-11-21T07:51:08;10.40;99.90
20081;DHT22;10200;49.232;9.222;2023-11-21T07:53:34;10.40;99.90
20081;DHT22;10200;49.232;9.222;2023-11-21T07:56:04;10.40;99.90
20081;DHT22;10200;49.232;9.222;2023-11-21T07:58:30;10.40;99.90
20081;DHT22;10200;49.232;9.222;2023-11-21T08:00:56;10.40;99.90
20081;DHT22;10200;49.232;9.222;2023-11-21T08:03:22;10.40;99.90
20081;DHT22;10200;49.232;9.222;2023-11-21T08:05:47;10.40;99.90
20081;DHT22;10200;49.232;9.222;2023-11-21T08:08:13;10.40;99.90
20081;DHT22;10200;49.232;9.222;2023-11-21T08:10:39;10.50;99.90
20081;DHT22;10200;49.232;9.222;2023-11-21T08:13:05;10.50;99.90
20081;DHT22;10200;49.232;9.222;2023-11-21T08:15:31;10.50;99.90
20081;DHT22;10200;49.232;9.222;2023-11-21T08:17:58;10.50;99.90
20081;DHT22;10200;49.232;9.222;2023-11-21T08:20:24;10.50;99.90
20081;DHT22;10200;49.232;9.222;2023-11-21T08:22:50;10.60;99.90
20081;DHT22;10200;49.232;9.222;2023-11-21T08:25:18;10.60;99.90
20081;DHT22;10200;49.232;9.222;2023-11-21T08:27:45;10.60;99.90
20081;DHT22;10200;49.232;9.222;2023-11-21T08:30:11;10.60;99.90
20081;DHT22;10200;49.232;9.222;2023-11-21T08:32:39;10.60;99.90
20081;DHT22;10200;49.232;9.222;2023-11-21T08:35:05;10.60;99.90
20081;DHT22;10200;49.232;9.222;2023-11-21T08:37:31;10.70;99.90
20081;DHT22;10200;49.232;9.222;2023-11-21T08:39:58;10.70;99.90
20081;DHT22;10200;49.232;9.222;2023-11-21T08:42:29;10.70;99.90
20081;DHT22;10200;49.232;9.222;2023-11-21T08:44:55;10.70;99.90
20081;DHT22;10200;49.232;9.222;2023-11-21T08:47:23;10.80;99.90
20081;DHT22;10200;49.232;9.222;2023-11-21T08:49:50;10.80;99.90
20081;DHT22;10200;49.232;9.222;2023-11-21T08:52:17;10.80;99.90
20081;DHT22;10200;49.232;9.222;2023-11-21T08:54:43;10.80;99.90
20081;DHT22;10200;49.232;9.222;2023-11-21T08:57:10;10.90;99.90
20081;DHT22;10200;49.232;9.222;2023-11-21T08:59:36;10.90;99.90
20081;DHT22;10200;49.232;9.222;2023-11-21T09:02:02;10.90;99.90
20081;DHT22;10200;49.232;9.222;2023-11-21T09:04:27;10.90;99.90
20081;DHT22;10200;49.232;9.222;2023-11-21T09:06:53;11.00;99.90
20081;DHT22;10200;49.232;9.222;2023-11-21T09:09:18;11.00;99.90
20081;DHT22;10200;49.232;9.222;2023-11-21T09:11:45;11.00;99.90
20081;DHT22;10200;49.232;9.222;2023-11-21T09:14:11;11.00;99.90
20081;DHT22;10200;49.232;9.222;2023-11-21T09:16:40;11.10;99.90
20081;DHT22;10200;49.232;9.222;2023-11-21T09:19:06;11.00;99.90
20081;DHT22;10200;49.232;9.222;2023-11-21T09:21:32;11.10;99.90
20081;DHT22;10200;49.232;9.222;2023-11-21T09:23:59;11.00;99.90
20081;DHT22;10200;49.232;9.222;2023-11-21T09:26:24;11.10;99.90
20081;DHT22;10200;49.232;9.222;2023-11-21T09:28:50;11.10;99.90
20081;DHT22;10200;49.232;9.222;2023-11-21T09:31:16;11.10;99.90
20081;DHT22;10200;49.232;9.222;2023-11-21T09:33:43;11.10;99.90
20081;DHT22;10200;49.232;9.222;2023-11-21T09:36:13;11.10;99.90
20081;DHT22;10200;49.232;9.222;2023-11-21T09:38:41;11.10;99.90
20081;DHT22;10200;49.232;9.222;2023-11-21T09:41:21;11.10;99.90
20081;DHT22;10200;49.232;9.222;2023-11-21T09:43:52;11.10;99.90
20081;DHT22;10200;49.232;9.222;2023-11-21T09:46:21;11.10;99.90
20081;DHT22;10200;49.232;9.222;2023-11-21T09:48:51;11.20;99.90
20081;DHT22;10200;49.232;9.222;2023-11-21T09:51:19;11.30;99.90
20081;DHT22;10200;49.232;9.222;2023-11-21T09:53:49;11.40;99.90
20081;DHT22;10200;49.232;9.222;2023-11-21T09:56:17;11.40;99.90
20081;DHT22;10200;49.232;9.222;2023-11-21T09:58:51;11.50;99.90
20081;DHT22;10200;49.232;9.222;2023-11-21T10:01:18;11.50;99.90
20081;DHT22;10200;49.232;9.222;2023-11-21T10:03:44;11.50;99.90
20081;DHT22;10200;49.232;9.222;2023-11-21T10:06:13;11.50;99.90
20081;DHT22;10200;49.232;9.222;2023-11-21T10:08:40;11.50;99.90
20081;DHT22;10200;49.232;9.222;2023-11-21T10:11:08;11.50;99.90
20081;DHT22;10200;49.232;9.222;2023-11-21T10:13:37;11.50;99.90
20081;DHT22;10200;49.232;9.222;2023-11-21T10:16:04;11.50;99.90
20081;DHT22;10200;49.232;9.222;2023-11-21T10:18:32;11.40;99.90
20081;DHT22;10200;49.232;9.222;2023-11-21T10:21:00;11.30;99.90
20081;DHT22;10200;49.232;9.222;2023-11-21T10:23:26;11.30;99.90
20081;DHT22;10200;49.232;9.222;2023-11-21T10:25:52;11.30;99.90
20081;DHT22;10200;49.232;9.222;2023-11-21T10:28:18;11.20;99.90
20081;DHT22;10200;49.232;9.222;2023-11-21T10:30:44;11.30;99.90
20081;DHT22;10200;49.232;9.222;2023-11-21T10:33:10;11.30;99.90
20081;DHT22;10200;49.232;9.222;2023-11-21T10:38:19;11.50;99.90
20081;DHT22;10200;49.232;9.222;2023-11-21T10:40:48;11.50;99.90
20081;DHT22;10200;49.232;9.222;2023-11-21T10:43:14;11.40;99.90
20081;DHT22;10200;49.232;9.222;2023-11-21T10:45:41;11.40;99.90
20081;DHT22;10200;49.232;9.222;2023-11-21T10:48:13;11.40;99.90
20081;DHT22;10200;49.232;9.222;2023-11-21T10:50:43;11.50;99.90
20081;DHT22;10200;49.232;9.222;2023-11-21T10:53:10;11.60;99.90
20081;DHT22;10200;49.232;9.222;2023-11-21T10:55:37;11.70;99.90
20081;DHT22;10200;49.232;9.222;2023-11-21T10:58:04;11.80;99.90
20081;DHT22;10200;49.232;9.222;2023-11-21T11:00:32;11.90;99.90
20081;DHT22;10200;49.232;9.222;2023-11-21T11:02:57;11.90;99.90
20081;DHT22;10200;49.232;9.222;2023-11-21T11:05:25;11.90;99.90
20081;DHT22;10200;49.232;9.222;2023-11-21T11:08:05;11.80;99.90
20081;DHT22;10200;49.232;9.222;2023-11-21T11:10:31;11.80;99.90
20081;DHT22;10200;49.232;9.222;2023-11-21T11:12:58;11.70;99.90
20081;DHT22;10200;49.232;9.222;2023-11-21T11:15:25;11.70;99.90
20081;DHT22;10200;49.232;9.222;2023-11-21T11:17:52;11.60;99.90
20081;DHT22;10200;49.232;9.222;2023-11-21T11:20:18;11.60;99.90
20081;DHT22;10200;49.232;9.222;2023-11-21T11:25:49;11.70;99.90
20081;DHT22;10200;49.232;9.222;2023-11-21T11:33:57;11.90;99.90
20081;DHT22;10200;49.232;9.222;2023-11-21T11:36:34;12.00;99.90
20081;DHT22;10200;49.232;9.222;2023-11-21T11:39:01;12.00;99.90
20081;DHT22;10200;49.232;9.222;2023-11-21T11:41:34;12.00;99.90
20081;DHT22;10200;49.232;9.222;2023-11-21T11:44:01;12.10;99.90
20081;DHT22;10200;49.232;9.222;2023-11-21T11:46:45;12.00;99.90
20081;DHT22;10200;49.232;9.222;2023-11-21T11:49:24;12.00;99.90
20081;DHT22;10200;49.232;9.222;2023-11-21T11:54:55;12.10;99.90
20081;DHT22;10200;49.232;9.222;2023-11-21T11:57:24;12.20;99.90
20081;DHT22;10200;49.232;9.222;2023-11-21T12:00:09;12.20;99.90
20081;DHT22;10200;49.232;9.222;2023-11-21T12:02:36;12.20;99.90
20081;DHT22;10200;49.232;9.222;2023-11-21T12:05:10;12.30;99.90
20081;DHT22;10200;49.232;9.222;2023-11-21T12:10:15;12.50;99.90
20081;DHT22;10200;49.232;9.222;2023-11-21T12:13:09;12.50;99.90
20081;DHT22;10200;49.232;9.222;2023-11-21T12:15:36;12.50;99.90
20081;DHT22;10200;49.232;9.222;2023-11-21T12:18:02;12.50;99.90
20081;DHT22;10200;49.232;9.222;2023-11-21T12:20:29;12.40;99.90
20081;DHT22;10200;49.232;9.222;2023-11-21T12:22:58;12.40;99.90
20081;DHT22;10200;49.232;9.222;2023-11-21T12:25:31;12.40;99.90
20081;DHT22;10200;49.232;9.222;2023-11-21T12:27:58;12.30;99.90
20081;DHT22;10200;49.232;9.222;2023-11-21T12:30:27;12.30;99.90
20081;DHT22;10200;49.232;9.222;2023-11-21T12:33:02;12.30;99.90
20081;DHT22;10200;49.232;9.222;2023-11-21T12:35:29;12.30;99.90
20081;DHT22;10200;49.232;9.222;2023-11-21T12:37:56;12.30;99.90
20081;DHT22;10200;49.232;9.222;2023-11-21T12:40:22;12.20;99.90
20081;DHT22;10200;49.232;9.222;2023-11-21T12:42:58;12.20;99.90
20081;DHT22;10200;49.232;9.222;2023-11-21T12:45:24;12.20;99.90
20081;DHT22;10200;49.232;9.222;2023-11-21T12:48:04;12.20;99.90
20081;DHT22;10200;49.232;9.222;2023-11-21T12:50:34;12.20;99.90
20081;DHT22;10200;49.232;9.222;2023-11-21T12:53:08;12.10;99.90
20081;DHT22;10200;49.232;9.222;2023-11-21T12:55:35;12.00;99.90
20081;DHT22;10200;49.232;9.222;2023-11-21T12:58:06;12.00;99.90
20081;DHT22;10200;49.232;9.222;2023-11-21T13:03:04;11.90;99.90
20081;DHT22;10200;49.232;9.222;2023-11-21T13:05:35;11.90;99.90
20081;DHT22;10200;49.232;9.222;2023-11-21T13:08:04;11.90;99.90
20081;DHT22;10200;49.232;9.222;2023-11-21T13:10:34;12.00;99.90
20081;DHT22;10200;49.232;9.222;2023-11-21T13:13:03;12.00;99.90
20081;DHT22;10200;49.232;9.222;2023-11-21T13:15:31;11.90;99.90
20081;DHT22;10200;49.232;9.222;2023-11-21T13:17:58;11.90;99.90
20081;DHT22;10200;49.232;9.222;2023-11-21T13:20:27;11.80;99.90
20081;DHT22;10200;49.232;9.222;2023-11-21T13:22:57;11.80;99.90
20081;DHT22;10200;49.232;9.222;2023-11-21T13:25:25;11.70;99.90
20081;DHT22;10200;49.232;9.222;2023-11-21T13:28:00;11.70;99.90
20081;DHT22;10200;49.232;9.222;2023-11-21T13:30:26;11.60;99.90
20081;DHT22;10200;49.232;9.222;2023-11-21T13:32:53;11.60;99.90
20081;DHT22;10200;49.232;9.222;2023-11-21T13:35:23;11.70;99.90
20081;DHT22;10200;49.232;9.222;2023-11-21T13:37:57;11.70;99.90
20081;DHT22;10200;49.232;9.222;2023-11-21T13:40:26;11.70;99.90
20081;DHT22;10200;49.232;9.222;2023-11-21T13:42:55;11.80;99.90
20081;DHT22;10200;49.232;9.222;2023-11-21T13:45:25;11.80;99.90
20081;DHT22;10200;49.232;9.222;2023-11-21T13:47:53;11.90;99.90
20081;DHT22;10200;49.232;9.222;2023-11-21T13:50:28;11.90;99.90
20081;DHT22;10200;49.232;9.222;2023-11-21T13:53:01;11.90;99.90
20081;DHT22;10200;49.232;9.222;2023-11-21T13:55:42;12.00;99.90
20081;DHT22;10200;49.232;9.222;2023-11-21T13:58:07;12.00;99.90
20081;DHT22;10200;49.232;9.222;2023-11-21T14:00:37;12.00;99.90
20081;DHT22;10200;49.232;9.222;2023-11-21T14:03:12;12.00;99.90
20081;DHT22;10200;49.232;9.222;2023-11-21T14:05:47;12.00;99.90
20081;DHT22;10200;49.232;9.222;2023-11-21T14:08:18;12.10;99.90
20081;DHT22;10200;49.232;9.222;2023-11-21T14:10:49;12.10;99.90
20081;DHT22;10200;49.232;9.222;2023-11-21T14:13:18;12.20;99.90
20081;DHT22;10200;49.232;9.222;2023-11-21T14:15:45;12.20;99.90
20081;DHT22;10200;49.232;9.222;2023-11-21T14:18:12;12.30;99.90
20081;DHT22;10200;49.232;9.222;2023-11-21T14:20:42;12.30;99.90
20081;DHT22;10200;49.232;9.222;2023-11-21T14:23:07;12.20;99.90
20081;DHT22;10200;49.232;9.222;2023-11-21T14:25:37;12.20;99.90
20081;DHT22;10200;49.232;9.222;2023-11-21T14:28:04;12.10;99.90
20081;DHT22;10200;49.232;9.222;2023-11-21T14:30:34;12.00;99.90
20081;DHT22;10200;49.232;9.222;2023-11-21T14:33:02;12.00;99.90
20081;DHT22;10200;49.232;9.222;2023-11-21T14:35:28;11.90;99.90
20081;DHT22;10200;49.232;9.222;2023-11-21T14:38:00;11.90;99.90
20081;DHT22;10200;49.232;9.222;2023-11-21T14:40:28;11.90;99.90
20081;DHT22;10200;49.232;9.222;2023-11-21T14:43:01;11.90;99.90
20081;DHT22;10200;49.232;9.222;2023-11-21T14:45:26;11.80;99.90
20081;DHT22;10200;49.232;9.222;2023-11-21T14:47:54;11.80;99.90
20081;DHT22;10200;49.232;9.222;2023-11-21T14:50:46;11.80;99.90
20081;DHT22;10200;49.232;9.222;2023-11-21T14:53:26;11.80;99.90
20081;DHT22;10200;49.232;9.222;2023-11-21T14:56:11;11.70;99.90
20081;DHT22;10200;49.232;9.222;2023-11-21T14:58:46;11.60;99.90
20081;DHT22;10200;49.232;9.222;2023-11-21T15:01:12;11.60;99.90
20081;DHT22;10200;49.232;9.222;2023-11-21T15:03:38;11.60;99.90
20081;DHT22;10200;49.232;9.222;2023-11-21T15:06:12;11.50;99.90
20081;DHT22;10200;49.232;9.222;2023-11-21T15:08:57;11.50;99.90
20081;DHT22;10200;49.232;9.222;2023-11-21T15:11:46;11.50;99.90
20081;DHT22;10200;49.232;9.222;2023-11-21T15:14:13;11.40;99.90
20081;DHT22;10200;49.232;9.222;2023-11-21T15:16:45;11.40;99.90
20081;DHT22;10200;49.232;9.222;2023-11-21T15:19:15;11.30;99.90
20081;DHT22;10200;49.232;9.222;2023-11-21T15:21:44;11.30;99.90
20081;DHT22;10200;49.232;9.222;2023-11-21T15:24:11;11.30;99.90
20081;DHT22;10200;49.232;9.222;2023-11-21T15:26:37;11.30;99.90
20081;DHT22;10200;49.232;9.222;2023-11-21T15:29:02;11.20;99.90
20081;DHT22;10200;49.232;9.222;2023-11-21T15:31:28;11.20;99.90
20081;DHT22;10200;49.232;9.222;2023-11-21T15:33:54;11.20;99.90
20081;DHT22;10200;49.232;9.222;2023-11-21T15:36:24;11.20;99.90
20081;DHT22;10200;49.232;9.222;2023-11-21T15:38:49;11.20;99.90
20081;DHT22;10200;49.232;9.222;2023-11-21T15:41:15;11.20;99.90
20081;DHT22;10200;49.232;9.222;2023-11-21T15:43:41;11.20;99.90
20081;DHT22;10200;49.232;9.222;2023-11-21T15:46:06;11.20;99.90
20081;DHT22;10200;49.232;9.222;2023-11-21T15:48:36;11.20;99.90
20081;DHT22;10200;49.232;9.222;2023-11-21T15:51:04;11.20;99.90
20081;DHT22;10200;49.232;9.222;2023-11-21T15:53:30;11.20;99.90